createdAt,value
2018-03-25T00:00:26.369Z,16.80
2018-03-25T00:02:54.868Z,17.30
2018-03-25T00:05:23.322Z,19.87
2018-03-25T00:07:51.818Z,20.57
2018-03-25T00:10:20.278Z,21.50
2018-03-25T00:12:48.782Z,18.10
2018-03-25T00:15:17.273Z,20.07
2018-03-25T00:17:45.806Z,23.00
2018-03-25T00:20:14.262Z,20.97
2018-03-25T00:22:42.770Z,24.83
2018-03-25T00:25:11.234Z,27.83
2018-03-25T00:27:39.714Z,28.17
2018-03-25T00:30:08.178Z,27.30
2018-03-25T00:32:36.674Z,26.73
2018-03-25T00:35:05.198Z,21.87
2018-03-25T00:37:33.650Z,23.17
2018-03-25T00:40:02.120Z,22.70
2018-03-25T00:42:30.627Z,20.23
2018-03-25T00:44:59.126Z,23.50
2018-03-25T00:47:27.583Z,19.13
2018-03-25T00:49:56.085Z,19.00
2018-03-25T00:52:24.556Z,19.33
2018-03-25T00:54:53.046Z,20.20
2018-03-25T00:57:21.538Z,19.10
2018-03-25T00:59:50.005Z,21.00
2018-03-25T01:02:18.498Z,19.30
2018-03-25T01:04:47.014Z,20.67
2018-03-25T01:07:15.513Z,19.67
2018-03-25T01:09:44.009Z,19.40
2018-03-25T01:12:12.574Z,20.37
2018-03-25T01:14:41.053Z,20.17
2018-03-25T01:17:09.547Z,18.97
2018-03-25T01:19:38.060Z,18.07
2018-03-25T01:22:06.590Z,20.37
2018-03-25T01:24:35.071Z,19.93
2018-03-25T01:27:03.603Z,20.40
2018-03-25T01:29:32.121Z,18.97
2018-03-25T01:32:00.574Z,19.77
2018-03-25T01:34:29.078Z,17.13
2018-03-25T01:36:57.594Z,18.27
2018-03-25T01:39:26.058Z,18.43
2018-03-25T01:41:54.514Z,19.53
2018-03-25T01:44:23.050Z,21.07
2018-03-25T01:46:51.522Z,20.83
2018-03-25T01:49:20.018Z,19.47
2018-03-25T01:51:48.544Z,18.83
2018-03-25T01:54:17.014Z,21.63
2018-03-25T01:56:45.487Z,20.27
2018-03-25T01:59:13.985Z,21.40
2018-03-25T02:01:42.474Z,23.07
2018-03-25T02:04:11.014Z,20.97
2018-03-25T02:06:39.462Z,19.13
2018-03-25T02:09:07.954Z,19.50
2018-03-25T02:11:36.447Z,18.17
2018-03-25T02:14:04.994Z,19.30
2018-03-25T02:16:33.498Z,22.43
2018-03-25T02:19:01.958Z,20.73
2018-03-25T02:21:30.450Z,19.93
2018-03-25T02:23:58.945Z,18.63
2018-03-25T02:26:27.443Z,18.47
2018-03-25T02:28:55.898Z,18.77
2018-03-25T02:31:24.390Z,19.57
2018-03-25T02:33:52.847Z,19.90
2018-03-25T02:36:21.347Z,19.53
2018-03-25T02:38:49.855Z,22.23
2018-03-25T02:41:18.315Z,22.27
2018-03-25T02:43:46.810Z,22.63
2018-03-25T02:46:15.308Z,22.53
2018-03-25T02:48:43.830Z,21.13
2018-03-25T02:51:12.326Z,23.13
2018-03-25T02:53:40.798Z,23.60
2018-03-25T02:56:09.283Z,23.37
2018-03-25T02:58:38.591Z,20.60
2018-03-25T03:01:07.043Z,21.97
2018-03-25T03:03:35.579Z,23.17
2018-03-25T03:06:04.102Z,23.23
2018-03-25T03:08:32.605Z,20.63
2018-03-25T03:11:01.114Z,23.87
2018-03-25T03:13:29.574Z,22.90
2018-03-25T03:15:58.070Z,21.40
2018-03-25T03:18:26.562Z,22.07
2018-03-25T03:20:55.018Z,20.67
2018-03-25T03:23:23.519Z,21.03
2018-03-25T03:25:51.990Z,22.83
2018-03-25T03:28:20.809Z,24.13
2018-03-25T03:30:49.319Z,24.23
2018-03-25T03:33:17.823Z,21.20
2018-03-25T03:35:46.293Z,20.17
2018-03-25T03:38:14.794Z,21.50
2018-03-25T03:40:43.275Z,22.40
2018-03-25T03:43:11.752Z,21.97
2018-03-25T03:45:40.250Z,21.43
2018-03-25T03:48:08.707Z,21.83
2018-03-25T03:50:37.241Z,22.87
2018-03-25T03:53:05.706Z,22.93
2018-03-25T03:55:34.220Z,21.17
2018-03-25T03:58:02.815Z,24.63
2018-03-25T04:00:31.312Z,21.43
2018-03-25T04:02:59.765Z,23.43
2018-03-25T04:05:28.283Z,21.27
2018-03-25T04:07:56.797Z,21.17
2018-03-25T04:10:25.293Z,19.60
2018-03-25T04:12:53.764Z,19.13
2018-03-25T04:15:22.278Z,21.87
2018-03-25T04:17:50.794Z,20.10
2018-03-25T04:20:19.250Z,21.37
2018-03-25T04:22:47.709Z,19.17
2018-03-25T04:25:16.210Z,22.83
2018-03-25T04:27:44.678Z,19.87
2018-03-25T04:30:13.130Z,19.73
2018-03-25T04:32:41.589Z,20.53
2018-03-25T04:35:10.046Z,21.23
2018-03-25T04:37:38.549Z,19.33
2018-03-25T04:40:07.016Z,24.37
2018-03-25T04:42:35.486Z,23.07
2018-03-25T04:45:03.994Z,22.87
2018-03-25T04:47:32.490Z,24.80
2018-03-25T04:50:00.972Z,21.97
2018-03-25T04:52:29.497Z,21.97
2018-03-25T04:54:57.958Z,20.30
2018-03-25T04:57:26.462Z,20.30
2018-03-25T04:59:54.970Z,19.37
2018-03-25T05:02:23.429Z,19.90
2018-03-25T05:04:51.914Z,18.63
2018-03-25T05:07:20.386Z,18.27
2018-03-25T05:09:48.847Z,20.10
2018-03-25T05:12:17.342Z,18.77
2018-03-25T05:14:45.804Z,17.53
2018-03-25T05:17:14.315Z,19.87
2018-03-25T05:19:42.798Z,20.17
2018-03-25T05:22:11.309Z,20.33
2018-03-25T05:24:39.786Z,19.83
2018-03-25T05:27:08.307Z,21.37
2018-03-25T05:29:36.846Z,21.53
2018-03-25T05:32:05.310Z,20.30
2018-03-25T05:34:33.790Z,23.10
2018-03-25T05:37:02.286Z,21.43
2018-03-25T05:39:30.746Z,25.00
2018-03-25T05:41:59.218Z,21.53
2018-03-25T05:44:27.681Z,22.60
2018-03-25T05:46:56.190Z,24.50
2018-03-25T05:49:24.654Z,22.17
2018-03-25T05:51:53.111Z,19.23
2018-03-25T05:54:21.613Z,21.17
2018-03-25T05:56:50.112Z,20.77
2018-03-25T05:59:18.578Z,20.80
2018-03-25T06:01:47.054Z,19.47
2018-03-25T06:04:15.670Z,20.77
2018-03-25T06:06:44.134Z,20.43
2018-03-25T06:09:12.602Z,19.60
2018-03-25T06:11:41.114Z,20.10
2018-03-25T06:14:09.613Z,20.07
2018-03-25T06:16:38.070Z,19.07
2018-03-25T06:19:06.562Z,20.53
2018-03-25T06:21:35.030Z,20.47
2018-03-25T06:24:03.561Z,19.17
2018-03-25T06:26:32.125Z,19.67
2018-03-25T06:29:00.675Z,21.07
2018-03-25T06:31:29.134Z,21.67
2018-03-25T06:33:57.634Z,23.53
2018-03-25T06:36:26.121Z,22.17
2018-03-25T06:38:54.604Z,27.87
2018-03-25T06:41:23.106Z,23.63
2018-03-25T06:43:51.606Z,23.53
2018-03-25T06:46:20.077Z,23.90
2018-03-25T06:48:48.597Z,23.93
2018-03-25T06:51:17.058Z,18.77
2018-03-25T06:53:45.522Z,22.10
2018-03-25T06:56:14.050Z,21.40
2018-03-25T06:58:42.507Z,23.13
2018-03-25T07:01:10.966Z,23.07
2018-03-25T07:03:39.482Z,20.67
2018-03-25T07:06:07.948Z,26.57
2018-03-25T07:08:36.478Z,24.60
2018-03-25T07:11:05.002Z,20.20
2018-03-25T07:13:33.484Z,18.97
2018-03-25T07:16:01.986Z,20.07
2018-03-25T07:18:30.446Z,18.17
2018-03-25T07:20:58.952Z,20.03
2018-03-25T07:23:27.458Z,18.63
2018-03-25T07:25:55.927Z,17.03
2018-03-25T07:28:24.399Z,16.70
2018-03-25T07:30:52.934Z,16.20
2018-03-25T07:33:21.444Z,16.53
2018-03-25T07:35:49.902Z,17.97
2018-03-25T07:38:18.461Z,17.83
2018-03-25T07:40:47.766Z,16.20
2018-03-25T07:43:16.270Z,16.47
2018-03-25T07:45:44.722Z,17.53
2018-03-25T07:48:13.216Z,17.50
2018-03-25T07:50:41.676Z,15.83
2018-03-25T07:53:10.171Z,15.20
2018-03-25T07:55:38.630Z,16.17
2018-03-25T07:58:07.122Z,15.67
2018-03-25T08:00:35.582Z,15.50
2018-03-25T08:03:04.077Z,15.33
2018-03-25T08:05:32.598Z,16.10
2018-03-25T08:08:01.112Z,16.40
2018-03-25T08:10:29.616Z,16.53
2018-03-25T08:12:58.078Z,14.90
2018-03-25T08:15:26.582Z,16.20
2018-03-25T08:17:55.125Z,15.53
2018-03-25T08:20:23.614Z,14.40
2018-03-25T08:22:52.076Z,14.07
2018-03-25T08:25:20.594Z,13.83
2018-03-25T08:27:49.091Z,15.20
2018-03-25T08:30:17.600Z,14.23
2018-03-25T08:32:46.097Z,14.47
2018-03-25T08:35:14.560Z,14.77
2018-03-25T08:37:43.064Z,13.23
2018-03-25T08:40:11.564Z,13.80
2018-03-25T08:42:40.067Z,12.57
2018-03-25T08:45:08.531Z,13.90
2018-03-25T08:47:37.037Z,13.53
2018-03-25T08:50:05.498Z,13.83
2018-03-25T08:52:33.990Z,13.47
2018-03-25T08:55:02.478Z,12.20
2018-03-25T08:57:30.974Z,12.40
2018-03-25T08:59:59.451Z,12.30
2018-03-25T09:02:28.062Z,12.83
2018-03-25T09:04:56.850Z,12.17
2018-03-25T09:07:25.510Z,11.37
2018-03-25T09:09:54.182Z,11.57
2018-03-25T09:12:22.728Z,11.47
2018-03-25T09:14:51.404Z,10.10
2018-03-25T09:17:19.923Z,14.07
2018-03-25T09:19:48.423Z,12.77
2018-03-25T09:22:17.053Z,12.77
2018-03-25T09:24:45.800Z,8.50
2018-03-25T09:27:14.318Z,8.67
2018-03-25T09:29:43.136Z,10.60
2018-03-25T09:32:11.685Z,14.43
2018-03-25T09:34:40.188Z,13.17
2018-03-25T09:37:08.749Z,14.67
2018-03-25T09:39:37.259Z,13.20
2018-03-25T09:42:05.794Z,13.73
2018-03-25T09:44:34.250Z,13.77
2018-03-25T09:47:02.746Z,13.03
2018-03-25T09:49:31.197Z,13.80
2018-03-25T09:51:59.695Z,13.53
2018-03-25T09:54:28.190Z,14.00
2018-03-25T09:56:56.651Z,14.97
2018-03-25T09:59:25.146Z,14.93
2018-03-25T10:04:52.761Z,13.40
2018-03-25T10:07:21.222Z,12.03
2018-03-25T10:09:49.714Z,13.27
2018-03-25T10:12:18.205Z,12.20
2018-03-25T10:14:46.686Z,13.37
2018-03-25T10:17:15.177Z,13.07
2018-03-25T10:19:43.671Z,12.80
2018-03-25T10:22:12.173Z,12.93
2018-03-25T10:24:40.717Z,12.13
2018-03-25T10:27:09.202Z,12.17
2018-03-25T10:29:37.702Z,11.20
2018-03-25T10:32:06.199Z,12.13
2018-03-25T10:34:34.762Z,12.07
2018-03-25T10:37:03.240Z,13.00
2018-03-25T10:39:31.789Z,12.53
2018-03-25T10:42:00.277Z,12.93
2018-03-25T10:44:28.737Z,13.23
2018-03-25T10:46:57.231Z,13.27
2018-03-25T10:49:25.760Z,12.93
2018-03-25T10:51:54.234Z,12.33
2018-03-25T10:54:22.741Z,13.17
2018-03-25T10:56:51.251Z,13.80
2018-03-25T10:59:19.719Z,13.47
2018-03-25T11:01:48.227Z,16.33
2018-03-25T11:04:16.698Z,23.33
2018-03-25T11:06:45.182Z,12.07
2018-03-25T11:09:13.698Z,12.83
2018-03-25T11:11:42.159Z,12.63
2018-03-25T11:14:10.654Z,12.10
2018-03-25T11:16:39.119Z,12.27
2018-03-25T11:19:07.589Z,13.30
2018-03-25T11:21:36.089Z,12.43
2018-03-25T11:24:04.620Z,12.60
2018-03-25T11:26:33.082Z,12.87
2018-03-25T11:29:01.588Z,12.70
2018-03-25T11:31:30.089Z,11.63
2018-03-25T11:33:58.559Z,11.10
2018-03-25T11:36:27.022Z,12.43
2018-03-25T11:38:55.529Z,12.40
2018-03-25T11:41:23.986Z,12.13
2018-03-25T11:43:52.454Z,12.60
2018-03-25T11:46:20.946Z,13.97
2018-03-25T11:48:49.451Z,12.60
2018-03-25T11:51:17.921Z,16.63
2018-03-25T11:53:46.450Z,13.07
2018-03-25T11:56:14.922Z,28.07
2018-03-25T11:58:43.436Z,18.90
2018-03-25T12:01:11.941Z,14.07
2018-03-25T12:03:40.458Z,14.13
2018-03-25T12:06:08.971Z,16.90
2018-03-25T12:08:37.437Z,15.40
2018-03-25T12:11:05.985Z,15.33
2018-03-25T12:13:34.490Z,14.73
2018-03-25T12:16:03.027Z,14.77
2018-03-25T12:18:31.543Z,14.10
2018-03-25T12:21:00.011Z,12.77
2018-03-25T12:23:28.492Z,13.27
2018-03-25T12:25:56.995Z,16.90
2018-03-25T12:28:25.479Z,21.77
2018-03-25T12:30:53.990Z,15.83
2018-03-25T12:33:22.468Z,20.77
2018-03-25T12:35:51.125Z,18.70
2018-03-25T12:38:19.635Z,16.87
2018-03-25T12:40:48.146Z,17.70
2018-03-25T12:43:16.602Z,15.67
2018-03-25T12:45:45.062Z,15.47
2018-03-25T12:48:13.563Z,16.77
2018-03-25T12:50:42.031Z,17.67
2018-03-25T12:53:10.526Z,16.80
2018-03-25T12:55:38.978Z,18.40
2018-03-25T12:58:07.535Z,17.83
2018-03-25T13:00:36.000Z,16.90
2018-03-25T13:03:04.485Z,15.80
2018-03-25T13:05:32.983Z,15.83
2018-03-25T13:08:01.487Z,15.27
2018-03-25T13:10:30.025Z,17.90
2018-03-25T13:12:58.486Z,14.87
2018-03-25T13:15:26.986Z,14.53
2018-03-25T13:17:55.461Z,15.50
2018-03-25T13:20:23.926Z,15.70
2018-03-25T13:22:52.422Z,15.37
2018-03-25T13:25:20.922Z,16.80
2018-03-25T13:27:49.450Z,15.67
2018-03-25T13:30:17.955Z,15.43
2018-03-25T13:32:46.414Z,14.10
2018-03-25T13:35:14.914Z,14.67
2018-03-25T13:37:43.370Z,13.73
2018-03-25T13:40:11.867Z,14.00
2018-03-25T13:42:40.369Z,13.83
2018-03-25T13:45:08.835Z,15.70
2018-03-25T13:47:37.342Z,13.73
2018-03-25T13:50:05.854Z,14.57
2018-03-25T13:52:34.344Z,15.27
2018-03-25T13:55:02.852Z,15.10
2018-03-25T13:57:31.310Z,15.00
2018-03-25T13:59:59.797Z,14.80
2018-03-25T14:02:28.254Z,14.67
2018-03-25T14:04:56.750Z,15.43
2018-03-25T14:07:25.212Z,14.87
2018-03-25T14:09:53.713Z,15.43
2018-03-25T14:12:22.165Z,14.57
2018-03-25T14:14:50.668Z,13.77
2018-03-25T14:17:19.136Z,15.47
2018-03-25T14:19:47.674Z,15.47
2018-03-25T14:22:16.220Z,15.27
2018-03-25T14:24:44.714Z,14.83
2018-03-25T14:27:13.208Z,15.30
2018-03-25T14:29:41.674Z,15.20
2018-03-25T14:32:10.162Z,14.93
2018-03-25T14:34:38.664Z,15.27
2018-03-25T14:37:07.123Z,15.80
2018-03-25T14:39:35.631Z,15.53
2018-03-25T14:42:04.151Z,15.00
2018-03-25T14:44:32.662Z,17.63
2018-03-25T14:47:01.187Z,21.93
2018-03-25T14:49:29.680Z,23.73
2018-03-25T14:51:58.171Z,23.23
2018-03-25T14:54:26.670Z,23.40
2018-03-25T14:56:55.267Z,20.80
2018-03-25T14:59:23.726Z,19.10
2018-03-25T15:01:52.259Z,21.07
2018-03-25T15:04:20.788Z,15.93
2018-03-25T15:06:49.258Z,15.17
2018-03-25T15:09:17.713Z,15.70
2018-03-25T15:11:46.172Z,17.03
2018-03-25T15:14:14.662Z,16.33
2018-03-25T15:16:43.114Z,16.07
2018-03-25T15:19:11.621Z,16.37
2018-03-25T15:21:40.077Z,16.63
2018-03-25T15:24:08.558Z,16.80
2018-03-25T15:26:37.062Z,16.27
2018-03-25T15:29:05.579Z,15.20
2018-03-25T15:31:34.082Z,15.87
2018-03-25T15:34:02.543Z,16.00
2018-03-25T15:36:31.042Z,15.90
2018-03-25T15:38:59.506Z,16.13
2018-03-25T15:41:27.968Z,15.63
2018-03-25T15:43:56.562Z,17.03
2018-03-25T15:46:25.025Z,16.57
2018-03-25T15:48:53.486Z,16.67
2018-03-25T15:51:21.986Z,20.93
2018-03-25T15:53:50.509Z,18.13
2018-03-25T15:56:19.030Z,18.03
2018-03-25T15:58:47.534Z,17.77
2018-03-25T16:01:16.030Z,15.67
2018-03-25T16:03:44.487Z,16.50
2018-03-25T16:06:13.030Z,17.67
2018-03-25T16:08:41.523Z,17.97
2018-03-25T16:11:10.018Z,16.47
2018-03-25T16:13:38.504Z,16.93
2018-03-25T16:16:07.126Z,16.77
2018-03-25T16:18:35.582Z,18.00
2018-03-25T16:21:04.046Z,16.73
2018-03-25T16:23:32.546Z,16.97
2018-03-25T16:26:01.034Z,17.30
2018-03-25T16:28:29.506Z,18.33
2018-03-25T16:30:58.002Z,16.70
2018-03-25T16:33:26.503Z,22.20
2018-03-25T16:35:55.006Z,20.90
2018-03-25T16:38:23.466Z,21.83
2018-03-25T16:40:51.977Z,20.37
2018-03-25T16:43:20.488Z,17.87
2018-03-25T16:45:48.941Z,18.60
2018-03-25T16:48:17.434Z,19.87
2018-03-25T16:50:45.934Z,57.77
2018-03-25T16:53:14.390Z,27.07
2018-03-25T16:55:42.850Z,26.13
2018-03-25T16:58:11.338Z,46.57
2018-03-25T17:00:39.839Z,45.83
2018-03-25T17:03:08.330Z,22.20
2018-03-25T17:05:36.839Z,29.80
2018-03-25T17:08:05.352Z,104.13
2018-03-25T17:10:33.834Z,40.00
2018-03-25T17:13:02.330Z,41.03
2018-03-25T17:15:30.852Z,16.13
2018-03-25T17:17:59.327Z,16.97
2018-03-25T17:20:27.784Z,19.43
2018-03-25T17:22:56.299Z,17.50
2018-03-25T17:25:24.797Z,18.67
2018-03-25T17:27:53.258Z,19.10
2018-03-25T17:30:21.710Z,23.17
2018-03-25T17:32:50.210Z,23.97
2018-03-25T17:35:18.666Z,20.93
2018-03-25T17:37:47.176Z,20.03
2018-03-25T17:40:15.651Z,22.27
2018-03-25T17:42:44.142Z,20.17
2018-03-25T17:45:12.614Z,18.23
2018-03-25T17:47:41.118Z,19.13
2018-03-25T17:50:09.654Z,19.07
2018-03-25T17:52:38.115Z,19.33
2018-03-25T17:55:06.642Z,20.03
2018-03-25T17:57:35.108Z,21.23
2018-03-25T18:00:03.635Z,20.87
2018-03-25T18:02:32.382Z,18.83
2018-03-25T18:05:00.888Z,21.40
2018-03-25T18:07:29.414Z,18.90
2018-03-25T18:09:57.885Z,16.97
2018-03-25T18:12:26.416Z,16.73
2018-03-25T18:14:54.909Z,15.77
2018-03-25T18:17:34.098Z,17.23
2018-03-25T18:19:51.916Z,15.03
2018-03-25T18:22:20.378Z,15.07
2018-03-25T18:24:48.882Z,16.43
2018-03-25T18:27:17.358Z,18.27
2018-03-25T18:29:45.857Z,16.50
2018-03-25T18:32:14.357Z,18.13
2018-03-25T18:34:42.906Z,16.07
2018-03-25T18:37:11.373Z,16.33
2018-03-25T18:39:39.882Z,15.97
2018-03-25T18:42:08.334Z,16.50
2018-03-25T18:44:36.850Z,16.37
2018-03-25T18:47:05.350Z,18.53
2018-03-25T18:49:33.807Z,19.07
2018-03-25T18:52:02.302Z,18.20
2018-03-25T18:54:30.790Z,19.57
2018-03-25T18:56:59.310Z,20.20
2018-03-25T18:59:27.763Z,21.20
2018-03-25T19:01:56.242Z,20.67
2018-03-25T19:04:24.757Z,26.23
2018-03-25T19:06:53.226Z,27.27
2018-03-25T19:09:21.772Z,22.13
2018-03-25T19:11:50.257Z,32.83
2018-03-25T19:14:18.745Z,27.93
2018-03-25T19:16:47.210Z,32.00
2018-03-25T19:19:15.693Z,25.00
2018-03-25T19:21:44.152Z,29.27
2018-03-25T19:24:12.637Z,25.00
2018-03-25T19:26:41.106Z,26.67
2018-03-25T19:29:09.618Z,23.00
2018-03-25T19:31:38.122Z,23.13
2018-03-25T19:34:06.582Z,26.50
2018-03-25T19:36:35.105Z,25.80
2018-03-25T19:39:03.636Z,18.33
2018-03-25T19:41:32.166Z,25.27
2018-03-25T19:44:00.635Z,20.73
2018-03-25T19:46:29.110Z,21.43
2018-03-25T19:48:57.614Z,22.47
2018-03-25T19:51:26.082Z,20.60
2018-03-25T19:53:54.592Z,18.83
2018-03-25T19:56:23.059Z,19.93
2018-03-25T19:58:51.571Z,19.43
2018-03-25T20:01:20.055Z,21.53
2018-03-25T20:03:48.542Z,18.07
2018-03-25T20:06:17.002Z,23.30
2018-03-25T20:08:45.513Z,19.10
2018-03-25T20:11:13.966Z,19.00
2018-03-25T20:13:42.453Z,18.93
2018-03-25T20:16:10.986Z,17.43
2018-03-25T20:18:39.442Z,17.67
2018-03-25T20:21:07.942Z,17.77
2018-03-25T20:23:36.394Z,17.60
2018-03-25T20:26:04.994Z,18.20
2018-03-25T20:28:33.458Z,17.73
2018-03-25T20:31:01.986Z,17.27
2018-03-25T20:33:30.446Z,17.37
2018-03-25T20:35:58.949Z,18.57
2018-03-25T20:38:27.406Z,19.40
2018-03-25T20:40:55.898Z,20.30
2018-03-25T20:43:24.354Z,18.50
2018-03-25T20:45:52.858Z,19.80
2018-03-25T20:48:21.354Z,18.90
2018-03-25T20:50:49.817Z,20.60
2018-03-25T20:53:18.346Z,18.77
2018-03-25T20:55:46.806Z,19.73
2018-03-25T20:58:15.317Z,19.10
2018-03-25T21:00:43.770Z,19.93
2018-03-25T21:03:12.221Z,18.93
2018-03-25T21:05:40.715Z,21.63
2018-03-25T21:08:09.210Z,18.87
2018-03-25T21:10:37.694Z,18.73
2018-03-25T21:13:06.181Z,21.00
2018-03-25T21:15:34.634Z,20.43
2018-03-25T21:18:03.126Z,21.40
2018-03-25T21:20:31.590Z,22.03
2018-03-25T21:23:00.083Z,25.10
2018-03-25T21:25:28.556Z,20.73
2018-03-25T21:27:57.086Z,23.97
2018-03-25T21:30:25.580Z,20.97
2018-03-25T21:32:54.048Z,22.10
2018-03-25T21:35:22.557Z,20.37
2018-03-25T21:37:51.032Z,21.80
2018-03-25T21:40:19.549Z,21.73
2018-03-25T21:42:48.001Z,22.80
2018-03-25T21:45:16.496Z,22.30
2018-03-25T21:47:44.979Z,22.83
2018-03-25T21:50:13.470Z,22.53
2018-03-25T21:52:41.978Z,24.10
2018-03-25T21:55:10.477Z,24.20
2018-03-25T21:57:38.998Z,26.67
2018-03-25T22:00:07.506Z,26.93
2018-03-25T22:02:36.002Z,25.60
2018-03-25T22:05:04.506Z,23.87
2018-03-25T22:07:32.963Z,24.60
2018-03-25T22:10:01.473Z,24.50
2018-03-25T22:12:29.930Z,26.30
2018-03-25T22:14:58.404Z,27.37
2018-03-25T22:17:26.902Z,24.63
2018-03-25T22:19:55.362Z,26.07
2018-03-25T22:22:23.859Z,26.80
2018-03-25T22:24:52.353Z,23.93
2018-03-25T22:27:20.848Z,24.20
2018-03-25T22:29:49.298Z,25.67
2018-03-25T22:32:17.805Z,24.43
2018-03-25T22:34:46.282Z,27.57
2018-03-25T22:37:14.759Z,24.83
2018-03-25T22:39:43.274Z,27.20
2018-03-25T22:42:11.738Z,25.50
2018-03-25T22:44:40.189Z,26.77
2018-03-25T22:47:08.706Z,30.60
2018-03-25T22:49:37.198Z,29.63
2018-03-25T22:52:05.693Z,29.40
2018-03-25T22:54:34.166Z,29.03
2018-03-25T22:57:02.653Z,30.90
2018-03-25T22:59:31.166Z,35.07
2018-03-25T23:01:59.681Z,35.17
2018-03-25T23:04:28.202Z,32.30
2018-03-25T23:06:56.654Z,33.40
2018-03-25T23:09:25.122Z,33.10
2018-03-25T23:11:53.634Z,38.87
2018-03-25T23:14:22.170Z,32.20
2018-03-25T23:16:50.622Z,38.37
2018-03-25T23:19:19.114Z,34.97
2018-03-25T23:21:47.574Z,36.30
2018-03-25T23:24:16.088Z,38.57
2018-03-25T23:26:44.557Z,35.47
2018-03-25T23:29:13.053Z,30.80
2018-03-25T23:31:41.526Z,34.40
2018-03-25T23:34:10.020Z,35.07
2018-03-25T23:36:38.523Z,33.37
2018-03-25T23:39:07.098Z,29.93
2018-03-25T23:41:35.558Z,33.00
2018-03-25T23:44:04.099Z,33.27
2018-03-25T23:46:32.561Z,28.70
2018-03-25T23:49:01.018Z,32.67
2018-03-25T23:51:29.506Z,30.40
2018-03-25T23:53:57.973Z,31.90
2018-03-25T23:56:26.465Z,34.47
2018-03-25T23:58:54.966Z,29.23
